Aérodrome :
LOGIN :

S'inscrire | Disclaimer

   EN    FR    IT 

 










Légende :    VFR   VFR Marginal   IFR   IFR Intensif   IFR Très Intensif
Visi : 
Plafond : 
>= 8 km
>= 3000ft
5 à 8 km
1000 à 3000 ft
1500m à 5 km
500 à 1000 ft
800 à 1500m
200 à 500 ft
< 800m
< 200 ft
Symboles :   Orages  Brouillard  Fortes neiges  Fortes précipitations  Vent > 20 kt
SIGMETs :   Divers  Orages  Givrage  Turbulence  Onde Orograph.  Cendres Volcan.







- Altitude de l'aérodrome : 436 ft
- Code IATA : BTS


LZIB - Bratislava

DERNIER METAR :
  • 240630Z 30008KT 260V320 9999 SCT024 BKN050 15/09 Q1019 NOSIG

METARs EXPIRÉS :
  • 240600Z 30005KT 260V360 9999 SCT024 BKN050 15/09 Q1019 NOSIG
  • 240530Z 29007KT 9999 SCT024 BKN055 14/09 Q1019 NOSIG
  • 240500Z 28008KT 9999 SCT028 BKN058 14/08 Q1019 NOSIG
  • 240430Z 29009KT 9999 FEW045 BKN060 14/09 Q1019 NOSIG
  • 240400Z 30010KT 9999 SCT047 BKN063 13/08 Q1019 NOSIG

TAF TAF LZIB
Valide du 24 à 06h jusqu'au 25 à 06h UTC


240500Z 2406/2506 31006KT CAVOK
TEMPO 2412/2506 32010KT 9999 SHRA FEW020TCU SCT034
Pas de NOTAMs connus pour ce terrain.



MET'MAP, la Météo Aéronautique d'un coup d'oeil ! - Copyright ORBIFLY Décembre 2007 - Disclaimer

ORBIFLY MET'MAP TEAM :

Programmation & Développement : Alexandra Zaïnal
Conception & Développement : Baudouin d'Aumeries
Co-Programmation & Développement : Marc-Olivier Méhu
Soutien technique & logistique : Manuel Goepfert

Contact : metmap@orbifly.com




SOURCES & CREDITS :

   NOAA